sensor_id;sensor_type;location;lat;lon;timestamp;temperature;humidity
42135;DHT22;28312;43.460;11.810;2023-10-08T00:03:16;13.60;55.00
42135;DHT22;28312;43.460;11.810;2023-10-08T00:07:23;13.60;55.10
42135;DHT22;28312;43.460;11.810;2023-10-08T00:11:27;13.50;55.20
42135;DHT22;28312;43.460;11.810;2023-10-08T00:15:32;13.40;55.20
42135;DHT22;28312;43.460;11.810;2023-10-08T00:19:36;13.40;55.40
42135;DHT22;28312;43.460;11.810;2023-10-08T00:23:41;13.40;55.40
42135;DHT22;28312;43.460;11.810;2023-10-08T00:27:47;13.30;55.40
42135;DHT22;28312;43.460;11.810;2023-10-08T00:31:54;13.30;55.50
42135;DHT22;28312;43.460;11.810;2023-10-08T00:36:00;13.30;55.50
42135;DHT22;28312;43.460;11.810;2023-10-08T00:40:10;13.30;55.50
42135;DHT22;28312;43.460;11.810;2023-10-08T00:44:20;13.20;55.50
42135;DHT22;28312;43.460;11.810;2023-10-08T00:48:33;13.20;55.70
42135;DHT22;28312;43.460;11.810;2023-10-08T00:52:40;13.10;55.80
42135;DHT22;28312;43.460;11.810;2023-10-08T00:56:48;13.10;55.90
42135;DHT22;28312;43.460;11.810;2023-10-08T01:01:02;13.00;56.00
42135;DHT22;28312;43.460;11.810;2023-10-08T01:05:06;12.90;56.00
42135;DHT22;28312;43.460;11.810;2023-10-08T01:09:13;12.90;56.10
42135;DHT22;28312;43.460;11.810;2023-10-08T01:13:30;12.90;56.10
42135;DHT22;28312;43.460;11.810;2023-10-08T01:17:39;12.80;56.20
42135;DHT22;28312;43.460;11.810;2023-10-08T01:21:52;12.80;56.30
42135;DHT22;28312;43.460;11.810;2023-10-08T01:25:56;12.70;56.40
42135;DHT22;28312;43.460;11.810;2023-10-08T01:30:16;12.70;56.40
42135;DHT22;28312;43.460;11.810;2023-10-08T01:34:24;12.70;56.50
42135;DHT22;28312;43.460;11.810;2023-10-08T01:38:34;12.60;56.50
42135;DHT22;28312;43.460;11.810;2023-10-08T01:42:38;12.50;56.70
42135;DHT22;28312;43.460;11.810;2023-10-08T01:46:43;12.50;56.70
42135;DHT22;28312;43.460;11.810;2023-10-08T01:50:48;12.40;56.70
42135;DHT22;28312;43.460;11.810;2023-10-08T01:54:53;12.50;56.70
42135;DHT22;28312;43.460;11.810;2023-10-08T01:58:57;12.40;56.70
42135;DHT22;28312;43.460;11.810;2023-10-08T02:03:02;12.40;56.90
42135;DHT22;28312;43.460;11.810;2023-10-08T02:07:07;12.30;57.00
42135;DHT22;28312;43.460;11.810;2023-10-08T02:11:16;12.30;57.10
42135;DHT22;28312;43.460;11.810;2023-10-08T02:15:20;12.30;57.00
42135;DHT22;28312;43.460;11.810;2023-10-08T02:19:25;12.20;57.00
42135;DHT22;28312;43.460;11.810;2023-10-08T02:23:32;12.20;57.20
42135;DHT22;28312;43.460;11.810;2023-10-08T02:27:38;12.20;57.30
42135;DHT22;28312;43.460;11.810;2023-10-08T02:31:42;12.10;57.40
42135;DHT22;28312;43.460;11.810;2023-10-08T02:35:48;12.10;57.80
42135;DHT22;28312;43.460;11.810;2023-10-08T02:39:52;12.20;57.70
42135;DHT22;28312;43.460;11.810;2023-10-08T02:43:56;12.20;57.80
42135;DHT22;28312;43.460;11.810;2023-10-08T02:48:02;12.20;57.80
42135;DHT22;28312;43.460;11.810;2023-10-08T02:52:06;12.20;57.90
42135;DHT22;28312;43.460;11.810;2023-10-08T02:56:12;12.20;58.00
42135;DHT22;28312;43.460;11.810;2023-10-08T03:00:17;12.30;58.00
42135;DHT22;28312;43.460;11.810;2023-10-08T03:04:23;12.30;58.10
42135;DHT22;28312;43.460;11.810;2023-10-08T03:08:27;12.40;58.10
42135;DHT22;28312;43.460;11.810;2023-10-08T03:12:34;12.40;58.10
42135;DHT22;28312;43.460;11.810;2023-10-08T03:16:38;12.40;57.60
42135;DHT22;28312;43.460;11.810;2023-10-08T03:20:42;12.40;57.90
42135;DHT22;28312;43.460;11.810;2023-10-08T03:24:47;12.40;58.10
42135;DHT22;28312;43.460;11.810;2023-10-08T03:28:52;12.40;58.20
42135;DHT22;28312;43.460;11.810;2023-10-08T03:33:03;12.40;58.20
42135;DHT22;28312;43.460;11.810;2023-10-08T03:37:17;12.40;58.20
42135;DHT22;28312;43.460;11.810;2023-10-08T03:41:24;12.40;58.20
42135;DHT22;28312;43.460;11.810;2023-10-08T03:45:32;12.30;58.20
42135;DHT22;28312;43.460;11.810;2023-10-08T03:49:54;12.30;58.20
42135;DHT22;28312;43.460;11.810;2023-10-08T03:53:57;12.30;58.20
42135;DHT22;28312;43.460;11.810;2023-10-08T03:58:13;12.30;58.20
42135;DHT22;28312;43.460;11.810;2023-10-08T04:02:31;12.20;58.20
42135;DHT22;28312;43.460;11.810;2023-10-08T04:06:50;12.20;58.30
42135;DHT22;28312;43.460;11.810;2023-10-08T04:10:54;12.10;58.50
42135;DHT22;28312;43.460;11.810;2023-10-08T04:15:30;12.10;58.60
42135;DHT22;28312;43.460;11.810;2023-10-08T04:19:34;12.10;58.60
42135;DHT22;28312;43.460;11.810;2023-10-08T04:23:39;12.00;58.60
42135;DHT22;28312;43.460;11.810;2023-10-08T04:27:43;12.00;58.70
42135;DHT22;28312;43.460;11.810;2023-10-08T04:31:52;12.00;58.80
42135;DHT22;28312;43.460;11.810;2023-10-08T04:36:09;12.00;58.80
42135;DHT22;28312;43.460;11.810;2023-10-08T04:40:17;11.90;59.00
42135;DHT22;28312;43.460;11.810;2023-10-08T04:44:21;12.00;59.00
42135;DHT22;28312;43.460;11.810;2023-10-08T04:48:25;11.90;59.10
42135;DHT22;28312;43.460;11.810;2023-10-08T04:52:33;12.00;59.10
42135;DHT22;28312;43.460;11.810;2023-10-08T04:56:37;12.00;59.10
42135;DHT22;28312;43.460;11.810;2023-10-08T05:00:42;12.00;59.30
42135;DHT22;28312;43.460;11.810;2023-10-08T05:04:57;12.10;59.50
42135;DHT22;28312;43.460;11.810;2023-10-08T05:09:13;12.20;59.60
42135;DHT22;28312;43.460;11.810;2023-10-08T05:13:22;12.20;59.70
42135;DHT22;28312;43.460;11.810;2023-10-08T05:17:33;12.30;59.80
42135;DHT22;28312;43.460;11.810;2023-10-08T05:21:50;12.40;59.90
42135;DHT22;28312;43.460;11.810;2023-10-08T05:25:56;12.50;59.70
42135;DHT22;28312;43.460;11.810;2023-10-08T05:30:07;12.60;59.70
42135;DHT22;28312;43.460;11.810;2023-10-08T05:34:40;12.50;59.60
42135;DHT22;28312;43.460;11.810;2023-10-08T05:38:54;12.50;59.50
42135;DHT22;28312;43.460;11.810;2023-10-08T05:43:04;12.50;59.50
42135;DHT22;28312;43.460;11.810;2023-10-08T05:47:17;12.50;59.60
42135;DHT22;28312;43.460;11.810;2023-10-08T05:51:38;12.50;59.60
42135;DHT22;28312;43.460;11.810;2023-10-08T05:56:08;12.50;59.80
42135;DHT22;28312;43.460;11.810;2023-10-08T06:00:32;12.60;60.10
42135;DHT22;28312;43.460;11.810;2023-10-08T06:04:38;12.80;60.40
42135;DHT22;28312;43.460;11.810;2023-10-08T06:09:07;13.00;60.60
42135;DHT22;28312;43.460;11.810;2023-10-08T06:13:14;13.20;60.70
42135;DHT22;28312;43.460;11.810;2023-10-08T06:17:46;13.50;60.70
42135;DHT22;28312;43.460;11.810;2023-10-08T06:22:01;13.70;60.70
42135;DHT22;28312;43.460;11.810;2023-10-08T06:26:07;14.00;60.70
42135;DHT22;28312;43.460;11.810;2023-10-08T06:30:24;14.20;60.60
42135;DHT22;28312;43.460;11.810;2023-10-08T06:34:32;14.40;60.00
42135;DHT22;28312;43.460;11.810;2023-10-08T06:38:37;14.60;60.40
42135;DHT22;28312;43.460;11.810;2023-10-08T06:42:44;14.80;60.50
42135;DHT22;28312;43.460;11.810;2023-10-08T06:46:48;15.00;60.50
42135;DHT22;28312;43.460;11.810;2023-10-08T06:50:53;15.20;60.50
42135;DHT22;28312;43.460;11.810;2023-10-08T06:55:00;15.30;60.50
42135;DHT22;28312;43.460;11.810;2023-10-08T06:59:06;15.60;60.40
42135;DHT22;28312;43.460;11.810;2023-10-08T07:03:14;15.70;60.50
42135;DHT22;28312;43.460;11.810;2023-10-08T07:07:21;15.90;60.60
42135;DHT22;28312;43.460;11.810;2023-10-08T07:11:26;16.20;60.60
42135;DHT22;28312;43.460;11.810;2023-10-08T07:15:32;16.60;61.00
42135;DHT22;28312;43.460;11.810;2023-10-08T07:19:36;17.10;60.80
42135;DHT22;28312;43.460;11.810;2023-10-08T07:23:44;17.50;60.00
42135;DHT22;28312;43.460;11.810;2023-10-08T07:28:00;17.80;60.40
42135;DHT22;28312;43.460;11.810;2023-10-08T07:32:07;18.20;60.20
42135;DHT22;28312;43.460;11.810;2023-10-08T07:36:13;18.60;59.90
42135;DHT22;28312;43.460;11.810;2023-10-08T07:40:21;19.00;59.70
42135;DHT22;28312;43.460;11.810;2023-10-08T07:44:28;19.40;59.50
42135;DHT22;28312;43.460;11.810;2023-10-08T07:48:32;19.70;59.40
42135;DHT22;28312;43.460;11.810;2023-10-08T07:52:35;20.00;59.20
42135;DHT22;28312;43.460;11.810;2023-10-08T07:56:39;20.20;59.20
42135;DHT22;28312;43.460;11.810;2023-10-08T08:00:44;20.50;59.50
42135;DHT22;28312;43.460;11.810;2023-10-08T08:04:54;20.70;59.50
42135;DHT22;28312;43.460;11.810;2023-10-08T08:08:58;21.10;59.40
42135;DHT22;28312;43.460;11.810;2023-10-08T08:13:02;21.40;59.40
42135;DHT22;28312;43.460;11.810;2023-10-08T08:17:09;21.80;59.50
42135;DHT22;28312;43.460;11.810;2023-10-08T08:21:19;22.40;59.40
42135;DHT22;28312;43.460;11.810;2023-10-08T08:25:22;23.00;58.90
42135;DHT22;28312;43.460;11.810;2023-10-08T08:29:46;23.70;58.50
42135;DHT22;28312;43.460;11.810;2023-10-08T08:33:50;24.60;58.00
42135;DHT22;28312;43.460;11.810;2023-10-08T08:38:13;25.40;57.30
42135;DHT22;28312;43.460;11.810;2023-10-08T08:42:21;26.10;56.90
42135;DHT22;28312;43.460;11.810;2023-10-08T08:46:34;26.60;56.60
42135;DHT22;28312;43.460;11.810;2023-10-08T08:50:42;27.00;56.30
42135;DHT22;28312;43.460;11.810;2023-10-08T08:54:47;27.40;55.80
42135;DHT22;28312;43.460;11.810;2023-10-08T08:58:51;27.80;55.40
42135;DHT22;28312;43.460;11.810;2023-10-08T09:02:55;28.30;54.80
42135;DHT22;28312;43.460;11.810;2023-10-08T09:06:59;28.70;54.40
42135;DHT22;28312;43.460;11.810;2023-10-08T09:11:07;29.10;53.90
42135;DHT22;28312;43.460;11.810;2023-10-08T09:15:11;29.10;53.60
42135;DHT22;28312;43.460;11.810;2023-10-08T09:19:15;29.10;53.60
42135;DHT22;28312;43.460;11.810;2023-10-08T09:23:24;29.00;53.60
42135;DHT22;28312;43.460;11.810;2023-10-08T09:27:31;29.00;53.80
42135;DHT22;28312;43.460;11.810;2023-10-08T09:31:35;29.30;54.00
42135;DHT22;28312;43.460;11.810;2023-10-08T09:35:39;29.60;53.60
42135;DHT22;28312;43.460;11.810;2023-10-08T09:39:43;30.10;53.10
42135;DHT22;28312;43.460;11.810;2023-10-08T09:43:49;30.60;52.70
42135;DHT22;28312;43.460;11.810;2023-10-08T09:47:54;31.20;52.10
42135;DHT22;28312;43.460;11.810;2023-10-08T09:52:04;31.70;51.30
42135;DHT22;28312;43.460;11.810;2023-10-08T09:56:16;31.90;50.90
42135;DHT22;28312;43.460;11.810;2023-10-08T10:00:21;32.20;50.80
42135;DHT22;28312;43.460;11.810;2023-10-08T10:04:35;32.70;50.30
42135;DHT22;28312;43.460;11.810;2023-10-08T10:08:39;33.00;50.00
42135;DHT22;28312;43.460;11.810;2023-10-08T10:12:43;33.10;49.80
42135;DHT22;28312;43.460;11.810;2023-10-08T10:17:10;33.20;49.70
42135;DHT22;28312;43.460;11.810;2023-10-08T10:21:32;33.50;49.50
42135;DHT22;28312;43.460;11.810;2023-10-08T10:25:36;33.60;49.00
42135;DHT22;28312;43.460;11.810;2023-10-08T10:29:41;33.60;48.70
42135;DHT22;28312;43.460;11.810;2023-10-08T10:33:50;33.50;48.10
42135;DHT22;28312;43.460;11.810;2023-10-08T10:37:54;33.30;48.00
42135;DHT22;28312;43.460;11.810;2023-10-08T10:42:07;33.20;47.80
42135;DHT22;28312;43.460;11.810;2023-10-08T10:46:23;33.10;48.00
42135;DHT22;28312;43.460;11.810;2023-10-08T10:50:35;33.00;48.50
42135;DHT22;28312;43.460;11.810;2023-10-08T10:54:44;33.20;48.50
42135;DHT22;28312;43.460;11.810;2023-10-08T10:59:02;33.50;47.90
42135;DHT22;28312;43.460;11.810;2023-10-08T11:03:19;33.90;47.60
42135;DHT22;28312;43.460;11.810;2023-10-08T11:07:36;34.20;47.40
42135;DHT22;28312;43.460;11.810;2023-10-08T11:11:44;34.60;47.20
42135;DHT22;28312;43.460;11.810;2023-10-08T11:15:50;34.90;46.90
42135;DHT22;28312;43.460;11.810;2023-10-08T11:19:55;35.10;46.50
42135;DHT22;28312;43.460;11.810;2023-10-08T11:23:58;35.30;46.20
42135;DHT22;28312;43.460;11.810;2023-10-08T11:28:04;35.50;45.90
42135;DHT22;28312;43.460;11.810;2023-10-08T11:32:14;35.40;45.80
42135;DHT22;28312;43.460;11.810;2023-10-08T11:36:22;35.50;45.60
42135;DHT22;28312;43.460;11.810;2023-10-08T11:40:45;35.60;45.50
42135;DHT22;28312;43.460;11.810;2023-10-08T11:44:59;35.90;45.10
42135;DHT22;28312;43.460;11.810;2023-10-08T11:49:03;35.90;44.60
42135;DHT22;28312;43.460;11.810;2023-10-08T11:53:10;35.90;44.60
42135;DHT22;28312;43.460;11.810;2023-10-08T11:57:16;35.80;44.30
42135;DHT22;28312;43.460;11.810;2023-10-08T12:01:26;35.80;44.30
42135;DHT22;28312;43.460;11.810;2023-10-08T12:05:31;35.90;44.10
42135;DHT22;28312;43.460;11.810;2023-10-08T12:09:36;36.00;43.90
42135;DHT22;28312;43.460;11.810;2023-10-08T12:13:44;36.10;43.80
42135;DHT22;28312;43.460;11.810;2023-10-08T12:17:49;36.30;43.40
42135;DHT22;28312;43.460;11.810;2023-10-08T12:22:12;36.20;43.10
42135;DHT22;28312;43.460;11.810;2023-10-08T12:26:23;36.10;43.00
42135;DHT22;28312;43.460;11.810;2023-10-08T12:30:26;36.00;42.70
42135;DHT22;28312;43.460;11.810;2023-10-08T12:34:34;35.80;42.70
42135;DHT22;28312;43.460;11.810;2023-10-08T12:38:40;36.00;42.60
42135;DHT22;28312;43.460;11.810;2023-10-08T12:42:46;36.10;42.20
42135;DHT22;28312;43.460;11.810;2023-10-08T12:46:51;36.10;41.90
42135;DHT22;28312;43.460;11.810;2023-10-08T12:50:55;36.10;41.70
42135;DHT22;28312;43.460;11.810;2023-10-08T12:55:04;36.10;41.50
42135;DHT22;28312;43.460;11.810;2023-10-08T12:59:07;36.30;41.30
42135;DHT22;28312;43.460;11.810;2023-10-08T13:03:11;36.40;41.00
42135;DHT22;28312;43.460;11.810;2023-10-08T13:07:19;36.50;40.90
42135;DHT22;28312;43.460;11.810;2023-10-08T13:11:26;36.60;40.80
42135;DHT22;28312;43.460;11.810;2023-10-08T13:15:33;36.60;40.70
42135;DHT22;28312;43.460;11.810;2023-10-08T13:19:38;36.80;40.40
42135;DHT22;28312;43.460;11.810;2023-10-08T13:23:42;36.90;40.40
42135;DHT22;28312;43.460;11.810;2023-10-08T13:27:46;37.10;40.20
42135;DHT22;28312;43.460;11.810;2023-10-08T13:31:51;37.10;40.00
42135;DHT22;28312;43.460;11.810;2023-10-08T13:35:56;37.10;39.80
42135;DHT22;28312;43.460;11.810;2023-10-08T13:40:19;37.00;39.70
42135;DHT22;28312;43.460;11.810;2023-10-08T13:44:23;36.90;39.70
42135;DHT22;28312;43.460;11.810;2023-10-08T13:48:34;36.80;39.50
42135;DHT22;28312;43.460;11.810;2023-10-08T13:52:39;36.80;39.30
42135;DHT22;28312;43.460;11.810;2023-10-08T13:56:44;36.60;39.10
42135;DHT22;28312;43.460;11.810;2023-10-08T14:00:52;36.40;38.90
42135;DHT22;28312;43.460;11.810;2023-10-08T14:04:56;36.10;38.80
42135;DHT22;28312;43.460;11.810;2023-10-08T14:09:01;35.90;38.90
42135;DHT22;28312;43.460;11.810;2023-10-08T14:13:10;35.80;38.80
42135;DHT22;28312;43.460;11.810;2023-10-08T14:17:14;35.90;38.90
42135;DHT22;28312;43.460;11.810;2023-10-08T14:21:19;36.10;38.60
42135;DHT22;28312;43.460;11.810;2023-10-08T14:25:27;36.10;38.40
42135;DHT22;28312;43.460;11.810;2023-10-08T14:29:31;36.10;38.30
42135;DHT22;28312;43.460;11.810;2023-10-08T14:33:38;36.00;38.30
42135;DHT22;28312;43.460;11.810;2023-10-08T14:38:00;36.00;38.40
42135;DHT22;28312;43.460;11.810;2023-10-08T14:42:22;36.10;38.40
42135;DHT22;28312;43.460;11.810;2023-10-08T14:46:44;36.20;38.20
42135;DHT22;28312;43.460;11.810;2023-10-08T14:50:47;36.10;38.20
42135;DHT22;28312;43.460;11.810;2023-10-08T14:54:52;35.90;38.10
42135;DHT22;28312;43.460;11.810;2023-10-08T14:58:56;35.50;38.30
42135;DHT22;28312;43.460;11.810;2023-10-08T15:03:04;35.30;38.40
42135;DHT22;28312;43.460;11.810;2023-10-08T15:07:09;35.10;38.60
42135;DHT22;28312;43.460;11.810;2023-10-08T15:11:14;35.10;38.50
42135;DHT22;28312;43.460;11.810;2023-10-08T15:15:18;34.90;38.60
42135;DHT22;28312;43.460;11.810;2023-10-08T15:19:22;34.80;38.70
42135;DHT22;28312;43.460;11.810;2023-10-08T15:23:26;34.70;38.70
42135;DHT22;28312;43.460;11.810;2023-10-08T15:27:30;34.50;38.80
42135;DHT22;28312;43.460;11.810;2023-10-08T15:31:37;34.30;38.90
42135;DHT22;28312;43.460;11.810;2023-10-08T15:35:41;34.00;39.00
42135;DHT22;28312;43.460;11.810;2023-10-08T15:39:44;33.60;39.10
42135;DHT22;28312;43.460;11.810;2023-10-08T15:43:50;33.30;39.30
42135;DHT22;28312;43.460;11.810;2023-10-08T15:47:55;32.90;39.60
42135;DHT22;28312;43.460;11.810;2023-10-08T15:51:59;32.60;39.70
42135;DHT22;28312;43.460;11.810;2023-10-08T15:56:02;32.30;39.90
42135;DHT22;28312;43.460;11.810;2023-10-08T16:00:07;32.10;40.10
42135;DHT22;28312;43.460;11.810;2023-10-08T16:04:11;31.90;40.10
42135;DHT22;28312;43.460;11.810;2023-10-08T16:08:15;31.60;40.20
42135;DHT22;28312;43.460;11.810;2023-10-08T16:12:18;31.40;40.30
42135;DHT22;28312;43.460;11.810;2023-10-08T16:16:25;31.00;40.50
42135;DHT22;28312;43.460;11.810;2023-10-08T16:20:29;30.60;40.70
42135;DHT22;28312;43.460;11.810;2023-10-08T16:24:35;30.20;40.90
42135;DHT22;28312;43.460;11.810;2023-10-08T16:28:39;29.80;41.10
42135;DHT22;28312;43.460;11.810;2023-10-08T16:32:43;29.50;41.30
42135;DHT22;28312;43.460;11.810;2023-10-08T16:36:47;29.10;41.50
42135;DHT22;28312;43.460;11.810;2023-10-08T16:40:51;28.80;41.60
42135;DHT22;28312;43.460;11.810;2023-10-08T16:44:54;28.50;41.80
42135;DHT22;28312;43.460;11.810;2023-10-08T16:48:59;28.10;42.10
42135;DHT22;28312;43.460;11.810;2023-10-08T16:53:04;27.70;42.30
42135;DHT22;28312;43.460;11.810;2023-10-08T16:57:08;27.40;42.60
42135;DHT22;28312;43.460;11.810;2023-10-08T17:01:16;27.00;42.80
42135;DHT22;28312;43.460;11.810;2023-10-08T17:05:20;26.60;43.00
42135;DHT22;28312;43.460;11.810;2023-10-08T17:09:24;26.00;43.40
42135;DHT22;28312;43.460;11.810;2023-10-08T17:13:30;25.60;43.80
42135;DHT22;28312;43.460;11.810;2023-10-08T17:17:33;25.10;44.20
42135;DHT22;28312;43.460;11.810;2023-10-08T17:21:37;24.70;44.50
42135;DHT22;28312;43.460;11.810;2023-10-08T17:25:41;24.40;44.70
42135;DHT22;28312;43.460;11.810;2023-10-08T17:29:46;24.10;45.10
42135;DHT22;28312;43.460;11.810;2023-10-08T17:33:50;23.80;45.30
42135;DHT22;28312;43.460;11.810;2023-10-08T17:37:54;23.70;45.70
42135;DHT22;28312;43.460;11.810;2023-10-08T17:42:03;23.60;45.90
42135;DHT22;28312;43.460;11.810;2023-10-08T17:46:07;23.70;45.80
42135;DHT22;28312;43.460;11.810;2023-10-08T17:50:11;23.60;45.80
42135;DHT22;28312;43.460;11.810;2023-10-08T17:54:15;23.30;45.90
42135;DHT22;28312;43.460;11.810;2023-10-08T17:58:18;23.10;46.20
42135;DHT22;28312;43.460;11.810;2023-10-08T18:02:31;23.00;46.30
42135;DHT22;28312;43.460;11.810;2023-10-08T18:06:36;22.90;46.40
42135;DHT22;28312;43.460;11.810;2023-10-08T18:10:40;22.80;46.60
42135;DHT22;28312;43.460;11.810;2023-10-08T18:14:44;22.70;46.90
42135;DHT22;28312;43.460;11.810;2023-10-08T18:18:48;22.70;47.10
42135;DHT22;28312;43.460;11.810;2023-10-08T18:22:56;22.70;47.20
42135;DHT22;28312;43.460;11.810;2023-10-08T18:27:00;22.70;47.50
42135;DHT22;28312;43.460;11.810;2023-10-08T18:31:05;22.70;47.60
42135;DHT22;28312;43.460;11.810;2023-10-08T18:35:10;22.80;47.70
42135;DHT22;28312;43.460;11.810;2023-10-08T18:39:17;22.80;47.70
42135;DHT22;28312;43.460;11.810;2023-10-08T18:43:21;22.80;47.70
42135;DHT22;28312;43.460;11.810;2023-10-08T18:47:25;22.70;47.60
42135;DHT22;28312;43.460;11.810;2023-10-08T18:51:31;22.60;47.60
42135;DHT22;28312;43.460;11.810;2023-10-08T18:55:37;22.30;47.80
42135;DHT22;28312;43.460;11.810;2023-10-08T18:59:55;22.10;48.00
42135;DHT22;28312;43.460;11.810;2023-10-08T19:03:59;21.90;48.20
42135;DHT22;28312;43.460;11.810;2023-10-08T19:08:03;21.70;48.30
42135;DHT22;28312;43.460;11.810;2023-10-08T19:12:07;21.60;48.50
42135;DHT22;28312;43.460;11.810;2023-10-08T19:16:12;21.40;48.60
42135;DHT22;28312;43.460;11.810;2023-10-08T19:20:20;21.20;48.70
42135;DHT22;28312;43.460;11.810;2023-10-08T19:24:26;21.10;48.60
42135;DHT22;28312;43.460;11.810;2023-10-08T19:28:30;21.10;48.50
42135;DHT22;28312;43.460;11.810;2023-10-08T19:32:35;20.70;48.80
42135;DHT22;28312;43.460;11.810;2023-10-08T19:36:39;20.60;49.00
42135;DHT22;28312;43.460;11.810;2023-10-08T19:40:43;20.40;49.10
42135;DHT22;28312;43.460;11.810;2023-10-08T19:44:48;20.20;49.20
42135;DHT22;28312;43.460;11.810;2023-10-08T19:48:54;19.90;49.50
42135;DHT22;28312;43.460;11.810;2023-10-08T19:52:58;19.70;49.60
42135;DHT22;28312;43.460;11.810;2023-10-08T19:57:03;19.60;49.80
42135;DHT22;28312;43.460;11.810;2023-10-08T20:01:08;19.40;50.00
42135;DHT22;28312;43.460;11.810;2023-10-08T20:05:14;19.30;50.20
42135;DHT22;28312;43.460;11.810;2023-10-08T20:09:18;19.20;50.20
42135;DHT22;28312;43.460;11.810;2023-10-08T20:13:22;19.10;50.20
42135;DHT22;28312;43.460;11.810;2023-10-08T20:17:27;19.00;50.30
42135;DHT22;28312;43.460;11.810;2023-10-08T20:21:31;18.70;50.60
42135;DHT22;28312;43.460;11.810;2023-10-08T20:25:38;18.60;50.80
42135;DHT22;28312;43.460;11.810;2023-10-08T20:29:44;18.40;50.90
42135;DHT22;28312;43.460;11.810;2023-10-08T20:33:49;18.30;51.20
42135;DHT22;28312;43.460;11.810;2023-10-08T20:37:52;18.20;51.10
42135;DHT22;28312;43.460;11.810;2023-10-08T20:41:58;18.10;51.20
42135;DHT22;28312;43.460;11.810;2023-10-08T20:46:02;18.00;51.20
42135;DHT22;28312;43.460;11.810;2023-10-08T20:50:08;17.90;51.30
42135;DHT22;28312;43.460;11.810;2023-10-08T20:54:34;17.80;51.40
42135;DHT22;28312;43.460;11.810;2023-10-08T20:58:38;17.70;51.40
42135;DHT22;28312;43.460;11.810;2023-10-08T21:02:45;17.60;51.60
42135;DHT22;28312;43.460;11.810;2023-10-08T21:06:51;17.50;51.70
42135;DHT22;28312;43.460;11.810;2023-10-08T21:10:55;17.40;52.00
42135;DHT22;28312;43.460;11.810;2023-10-08T21:15:04;17.30;52.00
42135;DHT22;28312;43.460;11.810;2023-10-08T21:19:08;17.20;52.10
42135;DHT22;28312;43.460;11.810;2023-10-08T21:23:12;17.10;52.20
42135;DHT22;28312;43.460;11.810;2023-10-08T21:27:17;16.90;52.30
42135;DHT22;28312;43.460;11.810;2023-10-08T21:31:20;16.90;52.40
42135;DHT22;28312;43.460;11.810;2023-10-08T21:35:27;16.80;52.50
42135;DHT22;28312;43.460;11.810;2023-10-08T21:39:31;16.70;52.50
42135;DHT22;28312;43.460;11.810;2023-10-08T21:43:35;16.60;52.70
42135;DHT22;28312;43.460;11.810;2023-10-08T21:47:41;16.50;52.90
42135;DHT22;28312;43.460;11.810;2023-10-08T21:51:45;16.30;53.00
42135;DHT22;28312;43.460;11.810;2023-10-08T21:55:52;16.20;53.10
42135;DHT22;28312;43.460;11.810;2023-10-08T21:59:56;16.20;52.70
42135;DHT22;28312;43.460;11.810;2023-10-08T22:04:00;16.20;53.10
42135;DHT22;28312;43.460;11.810;2023-10-08T22:08:05;16.00;53.20
42135;DHT22;28312;43.460;11.810;2023-10-08T22:12:10;15.90;53.30
42135;DHT22;28312;43.460;11.810;2023-10-08T22:16:16;15.90;53.40
42135;DHT22;28312;43.460;11.810;2023-10-08T22:20:21;15.80;53.50
42135;DHT22;28312;43.460;11.810;2023-10-08T22:24:40;15.70;53.60
42135;DHT22;28312;43.460;11.810;2023-10-08T22:28:43;15.60;53.70
42135;DHT22;28312;43.460;11.810;2023-10-08T22:32:47;15.60;53.80
42135;DHT22;28312;43.460;11.810;2023-10-08T22:36:55;15.60;54.00
42135;DHT22;28312;43.460;11.810;2023-10-08T22:41:11;15.50;54.00
42135;DHT22;28312;43.460;11.810;2023-10-08T22:45:16;15.40;54.10
42135;DHT22;28312;43.460;11.810;2023-10-08T22:49:20;15.40;54.20
42135;DHT22;28312;43.460;11.810;2023-10-08T22:53:24;15.30;54.20
42135;DHT22;28312;43.460;11.810;2023-10-08T22:57:28;15.20;54.30
42135;DHT22;28312;43.460;11.810;2023-10-08T23:01:33;15.10;54.50
42135;DHT22;28312;43.460;11.810;2023-10-08T23:05:37;15.00;54.60
42135;DHT22;28312;43.460;11.810;2023-10-08T23:09:42;14.90;54.70
42135;DHT22;28312;43.460;11.810;2023-10-08T23:13:47;14.80;54.80
42135;DHT22;28312;43.460;11.810;2023-10-08T23:17:52;14.80;54.80
42135;DHT22;28312;43.460;11.810;2023-10-08T23:21:56;14.70;54.90
42135;DHT22;28312;43.460;11.810;2023-10-08T23:26:00;14.70;55.00
42135;DHT22;28312;43.460;11.810;2023-10-08T23:30:05;14.60;55.00
42135;DHT22;28312;43.460;11.810;2023-10-08T23:34:09;14.50;55.10
42135;DHT22;28312;43.460;11.810;2023-10-08T23:38:17;14.40;55.20
42135;DHT22;28312;43.460;11.810;2023-10-08T23:42:22;14.40;55.30
42135;DHT22;28312;43.460;11.810;2023-10-08T23:46:48;14.30;55.40
42135;DHT22;28312;43.460;11.810;2023-10-08T23:51:04;14.20;55.40
42135;DHT22;28312;43.460;11.810;2023-10-08T23:55:13;14.20;55.40
42135;DHT22;28312;43.460;11.810;2023-10-08T23:59:18;14.20;55.50
